createdAt,value
2022-12-29T04:03:19.450Z,95289.69
2022-12-29T04:05:49.009Z,95281.94
2022-12-29T04:08:18.780Z,95283.81
2022-12-29T04:10:50.085Z,95279.44
2022-12-29T04:13:20.918Z,95276.69
2022-12-29T04:15:50.410Z,95280.06
2022-12-29T04:18:22.681Z,95284.28
2022-12-29T04:21:01.560Z,95286.16
2022-12-29T04:23:35.392Z,95282.66
2022-12-29T04:26:08.498Z,95289.63
2022-12-29T04:28:41.999Z,95283.41
2022-12-29T04:31:34.569Z,95280.19
2022-12-29T04:34:05.863Z,95280.72
2022-12-29T04:36:35.880Z,95277.53
2022-12-29T04:39:06.127Z,95275.91
2022-12-29T04:41:36.220Z,95284.41
2022-12-29T04:44:06.411Z,95283.84
2022-12-29T04:46:36.875Z,95282.78
2022-12-29T04:49:13.420Z,95272.03
2022-12-29T04:52:03.121Z,95286.34
2022-12-29T04:54:32.842Z,95283.22
2022-12-29T04:57:10.802Z,95281.13
2022-12-29T04:59:41.779Z,95280.81
2022-12-29T05:02:11.815Z,95284.53
2022-12-29T05:04:42.843Z,95292.22
2022-12-29T05:07:12.294Z,95291.13
2022-12-29T05:09:41.683Z,95282.31
2022-12-29T05:12:11.144Z,95294.03
2022-12-29T05:14:49.081Z,95296.13
2022-12-29T05:17:18.652Z,95290.97
2022-12-29T05:19:49.825Z,95292.09
2022-12-29T05:22:19.528Z,95292.59
2022-12-29T05:24:49.663Z,95283.94
2022-12-29T05:27:19.549Z,95283.13
2022-12-29T05:30:03.265Z,95285.78
2022-12-29T05:32:33.382Z,95281.34
2022-12-29T05:35:04.524Z,95285.53
2022-12-29T05:37:36.109Z,95280.19
2022-12-29T05:40:08.557Z,95281.81
2022-12-29T05:42:37.961Z,95271.16
2022-12-29T05:45:34.253Z,95266.13
2022-12-29T05:48:26.752Z,95269.75
2022-12-29T05:51:26.894Z,95270.25
2022-12-29T05:53:58.797Z,95272.53
2022-12-29T05:56:29.855Z,95272.28
2022-12-29T05:59:02.296Z,95267.81
2022-12-29T06:01:31.901Z,95275.81
2022-12-29T06:04:02.008Z,95276.19
2022-12-29T06:06:33.463Z,95277.56
2022-12-29T06:09:03.205Z,95296.19
2022-12-29T06:11:32.642Z,95291.66
2022-12-29T06:14:02.944Z,95291.19
2022-12-29T06:16:32.746Z,95282.59
2022-12-29T06:19:04.624Z,95291.81
2022-12-29T06:21:38.265Z,95289.75
2022-12-29T06:24:09.738Z,95286.09
2022-12-29T06:26:41.101Z,95273.53
2022-12-29T06:29:18.019Z,95284.53
2022-12-29T06:31:49.797Z,95285.28
2022-12-29T06:34:19.663Z,95281.47
2022-12-29T06:36:50.411Z,95284.28
2022-12-29T06:39:19.897Z,95277.81
2022-12-29T06:42:02.097Z,95281.53
2022-12-29T06:44:46.611Z,95286.41
2022-12-29T06:47:16.547Z,95277.56
2022-12-29T06:49:46.202Z,95286.00
2022-12-29T06:52:16.899Z,95289.22
2022-12-29T06:54:46.692Z,95293.38
2022-12-29T06:57:18.146Z,95292.97
2022-12-29T06:59:47.748Z,95299.03
2022-12-29T07:02:19.243Z,95298.06
2022-12-29T07:04:48.742Z,95295.44
2022-12-29T07:07:19.552Z,95307.69
2022-12-29T07:09:49.022Z,95306.94
2022-12-29T07:12:18.458Z,95317.97
2022-12-29T07:14:47.819Z,95309.16
2022-12-29T07:17:17.226Z,95314.88
2022-12-29T07:19:46.653Z,95321.63
2022-12-29T07:22:16.123Z,95325.13
2022-12-29T07:24:46.816Z,95323.50
2022-12-29T07:27:16.237Z,95320.22
2022-12-29T07:29:45.885Z,95326.88
2022-12-29T07:32:15.279Z,95336.13
2022-12-29T07:34:46.269Z,95337.88
2022-12-29T07:37:17.334Z,95338.88
2022-12-29T07:39:48.338Z,95334.88
2022-12-29T07:42:17.755Z,95334.88
2022-12-29T07:44:53.285Z,95328.84
2022-12-29T07:47:29.665Z,95322.44
2022-12-29T07:49:59.081Z,95327.53
2022-12-29T07:52:28.490Z,95320.66
2022-12-29T07:54:59.253Z,95322.41
2022-12-29T07:57:32.021Z,95320.97
2022-12-29T08:00:01.873Z,95316.56
2022-12-29T08:02:41.383Z,95310.09
2022-12-29T08:05:11.038Z,95309.44
2022-12-29T08:07:40.477Z,95310.41
2022-12-29T08:10:12.069Z,95308.19
2022-12-29T08:12:43.382Z,95299.97
2022-12-29T08:15:14.042Z,95305.69
2022-12-29T08:17:43.692Z,95305.75
2022-12-29T08:20:14.235Z,95302.84
2022-12-29T08:22:43.807Z,95313.00
2022-12-29T08:25:15.045Z,95298.72
2022-12-29T08:27:46.411Z,95300.19
2022-12-29T08:30:16.295Z,95311.06
2022-12-29T08:32:45.687Z,95309.19
2022-12-29T08:35:15.197Z,95314.56
2022-12-29T08:37:44.626Z,95327.69
2022-12-29T08:40:15.859Z,95325.50
2022-12-29T08:42:46.074Z,95321.78
2022-12-29T08:45:15.626Z,95334.03
2022-12-29T08:47:45.060Z,95331.03
2022-12-29T08:50:14.512Z,95340.03
2022-12-29T08:52:43.855Z,95337.59
2022-12-29T08:55:14.625Z,95348.84
2022-12-29T08:57:44.215Z,95351.84
2022-12-29T09:00:19.698Z,95351.31
2022-12-29T09:02:49.371Z,95352.22
2022-12-29T09:05:19.152Z,95347.66
2022-12-29T09:07:49.073Z,95349.38
2022-12-29T09:10:20.154Z,95351.28
2022-12-29T09:12:49.641Z,95349.13
2022-12-29T09:15:19.412Z,95352.09
2022-12-29T09:17:48.915Z,95353.47
2022-12-29T09:20:21.292Z,95345.94
2022-12-29T09:22:50.995Z,95353.75
2022-12-29T09:25:25.097Z,95347.28
2022-12-29T09:27:55.523Z,95340.84
2022-12-29T09:30:25.712Z,95336.53
2022-12-29T09:32:55.491Z,95340.03
2022-12-29T09:35:25.119Z,95344.31
2022-12-29T09:37:54.592Z,95338.94
2022-12-29T09:40:36.100Z,95334.41
2022-12-29T09:43:52.400Z,95348.09
2022-12-29T09:46:28.526Z,95336.03
2022-12-29T09:49:17.893Z,95345.69
2022-12-29T09:51:53.160Z,95343.00
2022-12-29T09:54:48.181Z,95346.22
2022-12-29T09:57:27.499Z,95349.44
2022-12-29T10:00:05.427Z,95355.59
2022-12-29T10:02:47.003Z,95341.63
2022-12-29T10:05:43.788Z,95348.63
2022-12-29T10:08:32.286Z,95352.91
2022-12-29T10:11:20.225Z,95353.19
2022-12-29T10:14:19.736Z,95354.25
2022-12-29T10:17:02.105Z,95344.06
2022-12-29T10:19:51.229Z,95336.25
2022-12-29T10:22:43.372Z,95330.09
2022-12-29T10:25:20.990Z,95335.47
2022-12-29T10:27:52.043Z,95320.44
2022-12-29T10:30:22.816Z,95313.97
2022-12-29T10:32:57.460Z,95313.44
2022-12-29T10:35:35.050Z,95305.63
2022-12-29T10:38:17.180Z,95298.63
2022-12-29T10:40:54.093Z,95302.09
2022-12-29T10:43:30.414Z,95296.44
2022-12-29T10:46:10.808Z,95294.50
2022-12-29T10:48:41.183Z,95280.72
2022-12-29T10:51:11.354Z,95279.09
2022-12-29T10:53:48.304Z,95283.13
2022-12-29T10:56:31.404Z,95276.53
2022-12-29T10:59:09.766Z,95263.34
2022-12-29T11:01:54.952Z,95261.97
2022-12-29T11:04:47.962Z,95276.78
2022-12-29T11:07:26.907Z,95273.53
2022-12-29T11:09:57.031Z,95275.97
2022-12-29T11:12:29.891Z,95270.59
2022-12-29T11:15:15.578Z,95279.41
2022-12-29T11:17:52.665Z,95273.75
2022-12-29T11:20:35.845Z,95272.41
2022-12-29T11:23:24.939Z,95261.06
2022-12-29T11:26:22.106Z,95264.28
2022-12-29T11:29:40.370Z,95261.00
2022-12-29T11:32:22.754Z,95266.09
2022-12-29T11:34:59.665Z,95248.88
2022-12-29T11:37:36.285Z,95244.81
2022-12-29T11:40:12.275Z,95254.97
2022-12-29T11:42:50.662Z,95246.84
2022-12-29T11:45:24.610Z,95251.63
2022-12-29T11:47:58.095Z,95247.53
2022-12-29T11:50:34.197Z,95248.00
2022-12-29T11:53:08.296Z,95243.41
2022-12-29T11:55:37.675Z,95235.28
2022-12-29T11:58:08.364Z,95233.41
2022-12-29T12:00:41.689Z,95234.47
2022-12-29T12:03:20.050Z,95236.28
2022-12-29T12:05:56.725Z,95241.03
2022-12-29T12:08:38.397Z,95244.16
2022-12-29T12:11:15.060Z,95228.06
2022-12-29T12:13:59.134Z,95216.84
2022-12-29T12:16:42.113Z,95232.09
2022-12-29T12:19:34.882Z,95229.13
2022-12-29T12:22:18.213Z,95226.38
2022-12-29T12:24:56.623Z,95227.13
2022-12-29T12:27:31.315Z,95226.31
2022-12-29T12:30:06.160Z,95217.78
2022-12-29T12:32:50.665Z,95225.66
2022-12-29T12:35:36.661Z,95214.16
2022-12-29T12:38:25.111Z,95213.63
2022-12-29T12:41:16.728Z,95218.81
2022-12-29T12:43:54.952Z,95213.47
2022-12-29T12:46:55.160Z,95208.84
2022-12-29T12:50:04.758Z,95212.72
2022-12-29T12:52:55.560Z,95215.19
2022-12-29T12:56:14.787Z,95202.16
2022-12-29T12:58:54.558Z,95207.63
2022-12-29T13:01:41.294Z,95198.78
2022-12-29T13:04:50.113Z,95196.66
2022-12-29T13:07:35.567Z,95192.94
2022-12-29T13:10:48.461Z,95202.16
2022-12-29T13:14:03.042Z,95195.97
2022-12-29T13:16:44.379Z,95197.09
2022-12-29T13:19:25.372Z,95191.19
2022-12-29T13:22:09.103Z,95199.09
2022-12-29T13:25:00.644Z,95194.03
2022-12-29T13:27:45.185Z,95199.38
2022-12-29T13:30:20.219Z,95211.38
2022-12-29T13:33:06.122Z,95209.19
2022-12-29T13:35:57.481Z,95206.06
2022-12-29T13:38:36.795Z,95205.25
2022-12-29T13:41:11.144Z,95204.44
2022-12-29T13:43:47.687Z,95203.66
2022-12-29T13:46:24.586Z,95195.91
2022-12-29T13:49:01.119Z,95195.94
2022-12-29T13:51:31.715Z,95202.44
2022-12-29T13:54:19.911Z,95190.59
2022-12-29T13:56:58.529Z,95194.44
2022-12-29T13:59:42.595Z,95198.03
2022-12-29T14:02:29.451Z,95201.00
2022-12-29T14:05:03.173Z,95206.44
2022-12-29T14:10:36.257Z,95197.59
2022-12-29T14:13:13.229Z,95202.19
2022-12-29T14:15:47.412Z,95204.06
2022-12-29T14:18:22.269Z,95205.50
2022-12-29T14:20:57.754Z,95200.69
2022-12-29T14:23:40.772Z,95198.06
2022-12-29T14:26:18.631Z,95205.34
2022-12-29T14:28:50.303Z,95198.38
2022-12-29T14:31:42.948Z,95209.41
2022-12-29T14:34:33.207Z,95204.94
2022-12-29T14:37:04.403Z,95217.81
2022-12-29T14:39:40.199Z,95223.00
2022-12-29T14:42:16.232Z,95213.94
2022-12-29T14:44:51.784Z,95215.53
2022-12-29T14:47:30.278Z,95216.63
2022-12-29T14:50:07.355Z,95205.91
2022-12-29T14:52:49.109Z,95210.75
2022-12-29T14:55:42.350Z,95213.25
2022-12-29T14:58:21.572Z,95204.97
2022-12-29T15:00:51.576Z,95210.72
2022-12-29T15:03:27.153Z,95215.06
2022-12-29T15:06:04.782Z,95218.03
2022-12-29T15:08:44.375Z,95217.78
2022-12-29T15:11:20.606Z,95216.44
2022-12-29T15:13:50.836Z,95211.41
2022-12-29T15:16:28.201Z,95210.34
2022-12-29T15:19:00.518Z,95219.66
2022-12-29T15:21:34.102Z,95221.84
2022-12-29T15:24:04.523Z,95223.78
2022-12-29T15:26:41.909Z,95216.16
2022-12-29T15:29:35.108Z,95214.84
2022-12-29T15:32:22.749Z,95222.38
2022-12-29T15:34:57.039Z,95217.31
2022-12-29T15:37:29.569Z,95212.13
2022-12-29T15:39:59.827Z,95205.41
2022-12-29T15:42:57.586Z,95209.69
2022-12-29T15:45:36.840Z,95208.63
2022-12-29T15:48:15.445Z,95215.63
2022-12-29T15:50:46.851Z,95218.31
2022-12-29T15:53:29.110Z,95219.94
2022-12-29T15:56:04.260Z,95223.72
2022-12-29T15:58:45.385Z,95222.19
2022-12-29T16:01:26.287Z,95231.06
2022-12-29T16:03:56.641Z,95235.63
2022-12-29T16:06:34.767Z,95226.75
2022-12-29T16:09:07.758Z,95221.91
2022-12-29T16:11:41.153Z,95232.41
2022-12-29T16:14:16.856Z,95225.38
2022-12-29T16:16:48.582Z,95226.47
2022-12-29T16:19:28.239Z,95235.03
2022-12-29T16:22:01.262Z,95244.22
2022-12-29T16:24:34.755Z,95249.88
2022-12-29T16:27:12.076Z,95248.78
2022-12-29T16:29:42.062Z,95244.22
2022-12-29T16:32:29.032Z,95238.84
2022-12-29T16:35:18.882Z,95245.28
2022-12-29T16:37:50.822Z,95251.50
2022-12-29T16:40:31.420Z,95243.97
2022-12-29T16:43:03.778Z,95255.53
2022-12-29T16:46:24.394Z,95246.13
2022-12-29T16:48:56.273Z,95266.31
2022-12-29T16:51:34.310Z,95260.13
2022-12-29T16:54:05.975Z,95254.75
2022-12-29T16:56:38.316Z,95249.38
2022-12-29T16:59:30.028Z,95257.97
2022-12-29T17:02:03.721Z,95260.69
2022-12-29T17:04:34.328Z,95258.00
2022-12-29T17:07:03.718Z,95249.13
2022-12-29T17:09:33.098Z,95245.06
2022-12-29T17:12:11.098Z,95253.66
2022-12-29T17:14:45.488Z,95249.88
2022-12-29T17:17:26.673Z,95254.19
2022-12-29T17:20:03.637Z,95253.38
2022-12-29T17:22:34.121Z,95254.47
2022-12-29T17:25:03.996Z,95260.09
2022-12-29T17:27:42.715Z,95263.59
2022-12-29T17:30:16.587Z,95269.25
2022-12-29T17:32:53.735Z,95263.59
2022-12-29T17:35:24.341Z,95267.16
2022-12-29T17:37:54.004Z,95265.50
2022-12-29T17:40:26.771Z,95275.19
2022-12-29T17:42:59.606Z,95264.66
2022-12-29T17:45:32.808Z,95278.91
2022-12-29T17:48:03.435Z,95265.44
2022-12-29T17:50:33.402Z,95267.31
2022-12-29T17:53:06.856Z,95263.53
2022-12-29T17:55:38.277Z,95274.59
2022-12-29T17:58:20.164Z,95260.56
2022-12-29T18:00:52.738Z,95268.66
2022-12-29T18:03:29.027Z,95280.75
2022-12-29T18:05:59.585Z,95265.97
2022-12-29T18:08:29.640Z,95277.84
2022-12-29T18:11:00.122Z,95281.34
2022-12-29T18:13:44.035Z,95286.69
2022-12-29T18:16:15.666Z,95276.53
2022-12-29T18:18:46.899Z,95269.25
2022-12-29T18:21:20.800Z,95272.75
2022-12-29T18:23:51.484Z,95278.41
2022-12-29T18:26:27.916Z,95278.94
2022-12-29T18:28:59.447Z,95279.22
2022-12-29T18:31:32.905Z,95269.00
2022-12-29T18:34:15.833Z,95269.53
2022-12-29T18:36:45.420Z,95261.47
2022-12-29T18:39:14.795Z,95268.19
2022-12-29T18:41:44.119Z,95267.91
2022-12-29T18:44:14.663Z,95266.28
2022-12-29T18:46:44.127Z,95254.97
2022-12-29T18:49:16.746Z,95260.94
2022-12-29T18:51:46.145Z,95270.34
2022-12-29T18:54:31.095Z,95273.28
2022-12-29T18:57:00.703Z,95273.56
2022-12-29T18:59:30.135Z,95283.53
2022-12-29T19:01:59.504Z,95273.59
2022-12-29T19:04:30.282Z,95282.22
2022-12-29T19:06:59.711Z,95263.13
2022-12-29T19:09:29.121Z,95260.97
2022-12-29T19:11:58.570Z,95263.38
2022-12-29T19:14:28.005Z,95263.88
2022-12-29T19:16:57.402Z,95265.75
2022-12-29T19:19:26.809Z,95266.84
2022-12-29T19:21:58.134Z,95270.63
2022-12-29T19:24:27.512Z,95277.63
2022-12-29T19:26:56.968Z,95273.06
2022-12-29T19:29:26.429Z,95272.81
2022-12-29T19:31:55.934Z,95269.03
2022-12-29T19:34:25.358Z,95276.25
2022-12-29T19:36:54.843Z,95273.28
2022-12-29T19:39:25.638Z,95275.16
2022-12-29T19:41:59.134Z,95275.72
2022-12-29T19:44:31.475Z,95271.41
2022-12-29T19:47:01.070Z,95275.22
2022-12-29T19:49:31.977Z,95269.28
2022-12-29T19:52:01.417Z,95282.19
2022-12-29T19:54:32.271Z,95279.50
2022-12-29T19:57:01.661Z,95289.72
2022-12-29T19:59:31.470Z,95291.63
2022-12-29T20:02:01.031Z,95295.94
2022-12-29T20:04:30.674Z,95283.56
2022-12-29T20:07:00.130Z,95276.03
2022-12-29T20:09:30.899Z,95280.06
2022-12-29T20:12:00.326Z,95290.81
2022-12-29T20:14:29.746Z,95280.88
2022-12-29T20:17:10.754Z,95272.00
2022-12-29T20:19:42.406Z,95267.47
2022-12-29T20:22:13.037Z,95268.56
2022-12-29T20:25:53.770Z,95271.25
2022-12-29T20:27:33.213Z,95270.16
2022-12-29T20:30:02.849Z,95272.03
2022-12-29T20:32:35.630Z,95257.53
2022-12-29T20:35:05.800Z,95266.94
2022-12-29T20:37:35.265Z,95269.63
2022-12-29T20:40:07.352Z,95277.44
2022-12-29T20:42:36.759Z,95275.28
2022-12-29T20:45:07.282Z,95262.09
2022-12-29T20:47:36.827Z,95271.00
2022-12-29T20:50:07.617Z,95269.91
2022-12-29T20:52:37.084Z,95268.03
2022-12-29T20:55:08.697Z,95269.66
2022-12-29T20:57:57.560Z,95271.53
2022-12-29T21:00:30.263Z,95268.06
2022-12-29T21:03:01.000Z,95249.78
2022-12-29T21:05:31.370Z,95258.09
2022-12-29T21:08:00.808Z,95260.78
2022-12-29T21:10:31.795Z,95265.34
2022-12-29T21:13:01.638Z,95272.59
2022-12-29T21:15:32.773Z,95261.84
2022-12-29T21:18:02.132Z,95277.69
2022-12-29T21:20:32.461Z,95271.50
2022-12-29T21:23:04.112Z,95268.81
2022-12-29T21:25:37.931Z,95256.69
2022-12-29T21:28:12.097Z,95256.72
2022-12-29T21:30:42.821Z,95259.41
2022-12-29T21:33:12.528Z,95256.72
2022-12-29T21:35:41.959Z,95255.09
2022-12-29T21:38:11.617Z,95261.81
2022-12-29T21:40:42.714Z,95272.25
2022-12-29T21:43:13.402Z,95275.19
2022-12-29T21:45:41.875Z,95281.34
2022-12-29T21:48:24.914Z,95294.22
2022-12-29T21:51:16.036Z,95299.81
2022-12-29T21:53:46.885Z,95308.94
2022-12-29T21:56:21.317Z,95316.47
2022-12-29T21:59:10.102Z,95310.31
2022-12-29T22:01:57.559Z,95315.19
2022-12-29T22:04:45.054Z,95307.13
2022-12-29T22:07:32.654Z,95301.75
2022-12-29T22:10:19.457Z,95297.16
2022-12-29T22:12:59.021Z,95316.16
2022-12-29T22:15:30.818Z,95307.09
2022-12-29T22:18:02.402Z,95306.25
2022-12-29T22:20:35.934Z,95314.31
2022-12-29T22:23:05.639Z,95312.47
2022-12-29T22:25:35.329Z,95319.72
2022-12-29T22:28:06.645Z,95331.78
2022-12-29T22:30:36.095Z,95339.59
2022-12-29T22:33:05.849Z,95326.44
2022-12-29T22:35:35.571Z,95344.94
2022-12-29T22:38:05.038Z,95344.88
2022-12-29T22:40:34.531Z,95348.34
2022-12-29T22:43:09.537Z,95357.75
2022-12-29T22:45:42.910Z,95362.31
2022-12-29T22:48:12.339Z,95367.69
2022-12-29T22:50:41.764Z,95364.75
2022-12-29T22:53:11.243Z,95372.78
2022-12-29T22:55:40.678Z,95375.72
2022-12-29T22:58:11.486Z,95385.59
2022-12-29T23:00:41.245Z,95387.25
2022-12-29T23:03:11.643Z,95383.47
2022-12-29T23:05:46.263Z,95390.22
2022-12-29T23:08:15.792Z,95396.91
2022-12-29T23:10:45.372Z,95398.25
2022-12-29T23:13:16.702Z,95388.31
2022-12-29T23:15:48.492Z,95391.56
2022-12-29T23:18:20.500Z,95385.09
2022-12-29T23:20:51.659Z,95391.47
2022-12-29T23:23:35.722Z,95377.19
2022-12-29T23:26:11.292Z,95385.47
2022-12-29T23:28:42.728Z,95398.78
2022-12-29T23:31:12.420Z,95394.94
2022-12-29T23:33:42.174Z,95408.06
2022-12-29T23:36:12.598Z,95395.47
2022-12-29T23:38:42.354Z,95401.53
2022-12-29T23:41:12.755Z,95410.44
2022-12-29T23:43:44.079Z,95401.34
2022-12-29T23:46:17.440Z,95400.84
2022-12-29T23:48:47.735Z,95404.84
2022-12-29T23:51:17.890Z,95406.97
2022-12-29T23:53:48.276Z,95410.19
2022-12-29T23:56:21.594Z,95416.84
2022-12-29T23:58:52.939Z,95417.41
